sensor_id;sensor_type;location;lat;lon;timestamp;pressure;altitude;pressure_sealevel;temperature;humidity
70027;BME280;57506;50.092;15.804;2022-09-03T00:01:02;99232.19;;;6.10;100.00
70027;BME280;57506;50.092;15.804;2022-09-03T00:03:33;99246.09;;;6.29;100.00
70027;BME280;57506;50.092;15.804;2022-09-03T00:06:17;99264.66;;;6.39;100.00
70027;BME280;57506;50.092;15.804;2022-09-03T00:08:50;99280.06;;;6.45;100.00
70027;BME280;57506;50.092;15.804;2022-09-03T00:11:18;99273.84;;;6.37;100.00
70027;BME280;57506;50.092;15.804;2022-09-03T00:13:52;99266.81;;;6.19;100.00
70027;BME280;57506;50.092;15.804;2022-09-03T00:16:23;99230.53;;;6.17;100.00
70027;BME280;57506;50.092;15.804;2022-09-03T00:19:00;99268.84;;;6.42;100.00
70027;BME280;57506;50.092;15.804;2022-09-03T00:21:37;99277.06;;;6.32;100.00
70027;BME280;57506;50.092;15.804;2022-09-03T00:24:07;99239.53;;;6.08;100.00
70027;BME280;57506;50.092;15.804;2022-09-03T00:26:36;99218.53;;;5.87;100.00
70027;BME280;57506;50.092;15.804;2022-09-03T00:29:08;99225.88;;;5.85;100.00
70027;BME280;57506;50.092;15.804;2022-09-03T00:31:39;99213.28;;;5.61;100.00
70027;BME280;57506;50.092;15.804;2022-09-03T00:34:31;99264.00;;;5.87;100.00
70027;BME280;57506;50.092;15.804;2022-09-03T00:36:56;99211.41;;;5.45;100.00
70027;BME280;57506;50.092;15.804;2022-09-03T00:39:24;99262.47;;;5.76;100.00
70027;BME280;57506;50.092;15.804;2022-09-03T00:42:31;99269.78;;;5.66;100.00
70027;BME280;57506;50.092;15.804;2022-09-03T00:50:54;99253.28;;;5.79;100.00
70027;BME280;57506;50.092;15.804;2022-09-03T01:02:00;99203.22;;;5.55;100.00
70027;BME280;57506;50.092;15.804;2022-09-03T01:15:51;99222.91;;;5.12;100.00
70027;BME280;57506;50.092;15.804;2022-09-03T01:18:42;99263.31;;;5.43;100.00
70027;BME280;57506;50.092;15.804;2022-09-03T01:26:54;99259.94;;;5.33;100.00
70027;BME280;57506;50.092;15.804;2022-09-03T01:29:46;99264.59;;;5.31;100.00
70027;BME280;57506;50.092;15.804;2022-09-03T01:32:21;99252.88;;;5.23;100.00
70027;BME280;57506;50.092;15.804;2022-09-03T01:35:02;99254.91;;;5.30;100.00
70027;BME280;57506;50.092;15.804;2022-09-03T01:42:36;99264.91;;;5.27;100.00
70027;BME280;57506;50.092;15.804;2022-09-03T01:47:58;99257.38;;;5.23;100.00
70027;BME280;57506;50.092;15.804;2022-09-03T01:59:14;99233.44;;;5.13;100.00
70027;BME280;57506;50.092;15.804;2022-09-03T02:02:10;99181.00;;;4.78;100.00
70027;BME280;57506;50.092;15.804;2022-09-03T02:07:41;99214.56;;;4.81;100.00
70027;BME280;57506;50.092;15.804;2022-09-03T02:10:14;99227.22;;;4.79;100.00
70027;BME280;57506;50.092;15.804;2022-09-03T02:12:44;99280.13;;;5.01;100.00
70027;BME280;57506;50.092;15.804;2022-09-03T02:15:18;99278.44;;;5.00;100.00
70027;BME280;57506;50.092;15.804;2022-09-03T02:17:46;99219.47;;;4.68;100.00
70027;BME280;57506;50.092;15.804;2022-09-03T02:20:18;99214.69;;;4.79;100.00
70027;BME280;57506;50.092;15.804;2022-09-03T02:22:48;99216.19;;;5.00;100.00
70027;BME280;57506;50.092;15.804;2022-09-03T02:25:15;99178.84;;;4.82;100.00
70027;BME280;57506;50.092;15.804;2022-09-03T02:27:42;99192.88;;;4.84;100.00
70027;BME280;57506;50.092;15.804;2022-09-03T02:30:09;99251.34;;;5.21;100.00
70027;BME280;57506;50.092;15.804;2022-09-03T02:32:35;99251.03;;;5.24;100.00
70027;BME280;57506;50.092;15.804;2022-09-03T02:35:00;99216.63;;;4.95;100.00
70027;BME280;57506;50.092;15.804;2022-09-03T02:37:26;99234.75;;;5.09;100.00
70027;BME280;57506;50.092;15.804;2022-09-03T02:39:51;99209.63;;;4.94;100.00
70027;BME280;57506;50.092;15.804;2022-09-03T02:42:17;99186.47;;;4.77;100.00
70027;BME280;57506;50.092;15.804;2022-09-03T02:47:38;99220.69;;;4.55;100.00
70027;BME280;57506;50.092;15.804;2022-09-03T02:50:07;99231.69;;;4.52;100.00
70027;BME280;57506;50.092;15.804;2022-09-03T02:52:32;99200.53;;;4.35;100.00
70027;BME280;57506;50.092;15.804;2022-09-03T02:54:58;99206.03;;;4.34;100.00
70027;BME280;57506;50.092;15.804;2022-09-03T02:57:23;99228.38;;;4.58;100.00
70027;BME280;57506;50.092;15.804;2022-09-03T02:59:49;99180.47;;;4.31;100.00
70027;BME280;57506;50.092;15.804;2022-09-03T03:02:14;99187.53;;;4.84;100.00
70027;BME280;57506;50.092;15.804;2022-09-03T03:04:40;99245.44;;;5.35;100.00
70027;BME280;57506;50.092;15.804;2022-09-03T03:07:06;99213.16;;;5.28;100.00
70027;BME280;57506;50.092;15.804;2022-09-03T03:09:31;99212.59;;;5.51;100.00
70027;BME280;57506;50.092;15.804;2022-09-03T03:11:57;99196.22;;;5.54;100.00
70027;BME280;57506;50.092;15.804;2022-09-03T03:14:23;99241.63;;;5.46;100.00
70027;BME280;57506;50.092;15.804;2022-09-03T03:16:49;99165.09;;;4.69;100.00
70027;BME280;57506;50.092;15.804;2022-09-03T03:19:16;99240.78;;;5.11;100.00
70027;BME280;57506;50.092;15.804;2022-09-03T03:21:42;99178.25;;;4.44;100.00
70027;BME280;57506;50.092;15.804;2022-09-03T03:24:07;99222.84;;;4.52;100.00
70027;BME280;57506;50.092;15.804;2022-09-03T03:26:33;99192.84;;;4.14;100.00
70027;BME280;57506;50.092;15.804;2022-09-03T03:29:01;99248.91;;;4.40;100.00
70027;BME280;57506;50.092;15.804;2022-09-03T03:31:30;99273.72;;;4.50;100.00
70027;BME280;57506;50.092;15.804;2022-09-03T03:33:58;99221.44;;;4.22;100.00
70027;BME280;57506;50.092;15.804;2022-09-03T03:36:27;99206.47;;;4.11;100.00
70027;BME280;57506;50.092;15.804;2022-09-03T03:38:54;99217.94;;;4.21;100.00
70027;BME280;57506;50.092;15.804;2022-09-03T03:41:22;99183.25;;;4.04;100.00
70027;BME280;57506;50.092;15.804;2022-09-03T03:43:59;99202.44;;;4.07;100.00
70027;BME280;57506;50.092;15.804;2022-09-03T03:46:29;99245.19;;;4.33;100.00
70027;BME280;57506;50.092;15.804;2022-09-03T03:48:54;99203.59;;;4.05;100.00
70027;BME280;57506;50.092;15.804;2022-09-03T03:51:20;99276.81;;;4.46;100.00
70027;BME280;57506;50.092;15.804;2022-09-03T03:53:45;99233.69;;;4.15;100.00
70027;BME280;57506;50.092;15.804;2022-09-03T03:56:13;99260.22;;;4.34;100.00
70027;BME280;57506;50.092;15.804;2022-09-03T03:58:39;99212.66;;;4.12;100.00
70027;BME280;57506;50.092;15.804;2022-09-03T04:01:10;99226.59;;;4.23;100.00
70027;BME280;57506;50.092;15.804;2022-09-03T04:03:36;99198.63;;;4.10;100.00
70027;BME280;57506;50.092;15.804;2022-09-03T04:06:03;99210.91;;;4.20;100.00
70027;BME280;57506;50.092;15.804;2022-09-03T04:08:30;99249.25;;;4.37;100.00
70027;BME280;57506;50.092;15.804;2022-09-03T04:11:00;99246.50;;;4.29;100.00
70027;BME280;57506;50.092;15.804;2022-09-03T04:13:29;99267.59;;;4.58;100.00
70027;BME280;57506;50.092;15.804;2022-09-03T04:16:09;99270.09;;;4.60;100.00
70027;BME280;57506;50.092;15.804;2022-09-03T04:18:35;99215.69;;;4.35;100.00
70027;BME280;57506;50.092;15.804;2022-09-03T04:21:03;99219.81;;;4.29;100.00
70027;BME280;57506;50.092;15.804;2022-09-03T04:23:31;99270.53;;;4.73;100.00
70027;BME280;57506;50.092;15.804;2022-09-03T04:25:56;99217.38;;;4.36;100.00
70027;BME280;57506;50.092;15.804;2022-09-03T04:28:22;99255.13;;;4.84;100.00
70027;BME280;57506;50.092;15.804;2022-09-03T04:30:47;99260.13;;;4.62;100.00
70027;BME280;57506;50.092;15.804;2022-09-03T04:33:13;99196.19;;;4.34;100.00
70027;BME280;57506;50.092;15.804;2022-09-03T04:35:39;99210.91;;;4.38;100.00
70027;BME280;57506;50.092;15.804;2022-09-03T04:38:05;99219.34;;;4.34;100.00
70027;BME280;57506;50.092;15.804;2022-09-03T04:40:31;99216.91;;;4.40;100.00
70027;BME280;57506;50.092;15.804;2022-09-03T04:42:57;99204.19;;;4.34;100.00
70027;BME280;57506;50.092;15.804;2022-09-03T04:45:24;99208.22;;;4.38;100.00
70027;BME280;57506;50.092;15.804;2022-09-03T04:47:57;99225.72;;;4.58;100.00
70027;BME280;57506;50.092;15.804;2022-09-03T04:50:23;99248.56;;;4.79;100.00
70027;BME280;57506;50.092;15.804;2022-09-03T04:52:49;99262.00;;;5.13;100.00
70027;BME280;57506;50.092;15.804;2022-09-03T04:55:14;99257.13;;;5.76;100.00
70027;BME280;57506;50.092;15.804;2022-09-03T04:57:41;99242.84;;;6.02;100.00
70027;BME280;57506;50.092;15.804;2022-09-03T05:00:07;99246.06;;;6.13;100.00
70027;BME280;57506;50.092;15.804;2022-09-03T05:02:36;99244.91;;;6.16;100.00
70027;BME280;57506;50.092;15.804;2022-09-03T05:05:02;99249.91;;;6.19;100.00
70027;BME280;57506;50.092;15.804;2022-09-03T05:07:29;99249.25;;;6.17;100.00
70027;BME280;57506;50.092;15.804;2022-09-03T05:10:07;99247.09;;;6.28;100.00
70027;BME280;57506;50.092;15.804;2022-09-03T05:12:33;99246.78;;;6.48;100.00
70027;BME280;57506;50.092;15.804;2022-09-03T05:14:59;99224.34;;;6.81;100.00
70027;BME280;57506;50.092;15.804;2022-09-03T05:17:25;99246.25;;;7.01;100.00
70027;BME280;57506;50.092;15.804;2022-09-03T05:19:51;99222.78;;;7.11;100.00
70027;BME280;57506;50.092;15.804;2022-09-03T05:22:18;99236.63;;;7.31;100.00
70027;BME280;57506;50.092;15.804;2022-09-03T05:24:46;99242.13;;;7.46;100.00
70027;BME280;57506;50.092;15.804;2022-09-03T05:27:13;99240.75;;;7.50;100.00
70027;BME280;57506;50.092;15.804;2022-09-03T05:29:44;99230.34;;;7.63;100.00
70027;BME280;57506;50.092;15.804;2022-09-03T05:32:10;99247.00;;;7.81;100.00
70027;BME280;57506;50.092;15.804;2022-09-03T05:34:41;99244.31;;;7.81;100.00
70027;BME280;57506;50.092;15.804;2022-09-03T05:37:07;99243.28;;;7.90;100.00
70027;BME280;57506;50.092;15.804;2022-09-03T05:39:33;99248.38;;;8.08;100.00
70027;BME280;57506;50.092;15.804;2022-09-03T05:41:58;99237.81;;;8.06;100.00
70027;BME280;57506;50.092;15.804;2022-09-03T05:44:24;99246.09;;;8.28;100.00
70027;BME280;57506;50.092;15.804;2022-09-03T05:46:50;99251.63;;;8.57;100.00
70027;BME280;57506;50.092;15.804;2022-09-03T05:49:16;99258.72;;;8.73;100.00
70027;BME280;57506;50.092;15.804;2022-09-03T05:51:41;99247.66;;;8.91;100.00
70027;BME280;57506;50.092;15.804;2022-09-03T05:54:08;99252.97;;;9.28;100.00
70027;BME280;57506;50.092;15.804;2022-09-03T05:56:36;99252.97;;;9.28;100.00
70027;BME280;57506;50.092;15.804;2022-09-03T05:59:04;99244.06;;;9.42;100.00
70027;BME280;57506;50.092;15.804;2022-09-03T06:01:43;99254.88;;;9.57;100.00
70027;BME280;57506;50.092;15.804;2022-09-03T06:04:14;99254.56;;;9.67;100.00
70027;BME280;57506;50.092;15.804;2022-09-03T06:06:42;99245.28;;;9.84;100.00
70027;BME280;57506;50.092;15.804;2022-09-03T06:09:13;99242.66;;;10.05;100.00
70027;BME280;57506;50.092;15.804;2022-09-03T06:11:41;99249.38;;;10.16;100.00
70027;BME280;57506;50.092;15.804;2022-09-03T06:14:08;99252.56;;;10.41;100.00
70027;BME280;57506;50.092;15.804;2022-09-03T06:16:39;99247.34;;;10.54;100.00
70027;BME280;57506;50.092;15.804;2022-09-03T06:19:06;99249.63;;;10.78;100.00
70027;BME280;57506;50.092;15.804;2022-09-03T06:21:34;99238.75;;;10.65;100.00
70027;BME280;57506;50.092;15.804;2022-09-03T06:24:01;99241.25;;;10.67;100.00
70027;BME280;57506;50.092;15.804;2022-09-03T06:26:27;99243.22;;;10.79;100.00
70027;BME280;57506;50.092;15.804;2022-09-03T06:28:53;99240.25;;;10.96;100.00
70027;BME280;57506;50.092;15.804;2022-09-03T06:31:21;99254.38;;;10.98;100.00
70027;BME280;57506;50.092;15.804;2022-09-03T06:33:47;99255.50;;;11.10;100.00
70027;BME280;57506;50.092;15.804;2022-09-03T06:36:15;99245.00;;;11.21;100.00
70027;BME280;57506;50.092;15.804;2022-09-03T06:38:41;99231.81;;;11.33;100.00
70027;BME280;57506;50.092;15.804;2022-09-03T06:41:13;99244.06;;;11.70;100.00
70027;BME280;57506;50.092;15.804;2022-09-03T06:43:41;99248.16;;;11.94;100.00
70027;BME280;57506;50.092;15.804;2022-09-03T06:46:10;99242.44;;;12.23;100.00
70027;BME280;57506;50.092;15.804;2022-09-03T06:48:36;99241.50;;;12.64;100.00
70027;BME280;57506;50.092;15.804;2022-09-03T06:51:05;99237.56;;;12.86;100.00
70027;BME280;57506;50.092;15.804;2022-09-03T06:53:35;99247.16;;;13.09;97.57
70027;BME280;57506;50.092;15.804;2022-09-03T06:56:10;99242.59;;;13.16;98.62
70027;BME280;57506;50.092;15.804;2022-09-03T06:58:46;99246.53;;;13.40;98.85
70027;BME280;57506;50.092;15.804;2022-09-03T07:01:32;99233.38;;;13.50;96.28
70027;BME280;57506;50.092;15.804;2022-09-03T07:04:03;99239.38;;;13.78;97.98
70027;BME280;57506;50.092;15.804;2022-09-03T07:06:31;99241.00;;;13.86;96.22
70027;BME280;57506;50.092;15.804;2022-09-03T07:08:57;99225.78;;;13.85;96.76
70027;BME280;57506;50.092;15.804;2022-09-03T07:11:26;99245.13;;;13.95;95.72
70027;BME280;57506;50.092;15.804;2022-09-03T07:13:52;99248.28;;;13.92;94.45
70027;BME280;57506;50.092;15.804;2022-09-03T07:18:47;99242.84;;;13.92;94.88
70027;BME280;57506;50.092;15.804;2022-09-03T07:21:16;99228.69;;;13.90;95.83
70027;BME280;57506;50.092;15.804;2022-09-03T07:23:42;99237.94;;;14.20;93.44
70027;BME280;57506;50.092;15.804;2022-09-03T07:26:16;99240.78;;;14.32;91.54
70027;BME280;57506;50.092;15.804;2022-09-03T07:28:44;99241.56;;;14.46;91.75
70027;BME280;57506;50.092;15.804;2022-09-03T07:31:31;99238.84;;;14.46;90.60
70027;BME280;57506;50.092;15.804;2022-09-03T07:34:00;99241.56;;;14.46;91.98
70027;BME280;57506;50.092;15.804;2022-09-03T07:36:27;99247.69;;;14.66;91.17
70027;BME280;57506;50.092;15.804;2022-09-03T07:38:55;99250.91;;;14.88;88.41
70027;BME280;57506;50.092;15.804;2022-09-03T07:41:22;99237.41;;;15.06;90.21
70027;BME280;57506;50.092;15.804;2022-09-03T07:43:48;99236.63;;;15.24;88.37
70027;BME280;57506;50.092;15.804;2022-09-03T07:46:17;99240.03;;;15.37;85.00
70027;BME280;57506;50.092;15.804;2022-09-03T07:48:57;99241.75;;;15.75;85.06
70027;BME280;57506;50.092;15.804;2022-09-03T07:51:28;99232.03;;;15.86;82.96
70027;BME280;57506;50.092;15.804;2022-09-03T07:53:56;99236.41;;;16.05;85.04
70027;BME280;57506;50.092;15.804;2022-09-03T07:56:23;99243.78;;;16.16;80.53
70027;BME280;57506;50.092;15.804;2022-09-03T07:58:48;99235.00;;;16.32;77.34
70027;BME280;57506;50.092;15.804;2022-09-03T08:01:17;99235.41;;;16.48;80.03
70027;BME280;57506;50.092;15.804;2022-09-03T08:03:44;99239.78;;;16.67;77.81
70027;BME280;57506;50.092;15.804;2022-09-03T08:06:12;99236.84;;;16.80;78.29
70027;BME280;57506;50.092;15.804;2022-09-03T08:08:37;99234.03;;;16.87;78.76
70027;BME280;57506;50.092;15.804;2022-09-03T08:11:09;99230.41;;;17.04;78.01
70027;BME280;57506;50.092;15.804;2022-09-03T08:13:43;99225.19;;;17.26;75.16
70027;BME280;57506;50.092;15.804;2022-09-03T08:16:11;99216.53;;;17.29;77.17
70027;BME280;57506;50.092;15.804;2022-09-03T08:18:38;99219.38;;;17.46;75.22
70027;BME280;57506;50.092;15.804;2022-09-03T08:21:09;99214.53;;;17.71;76.18
70027;BME280;57506;50.092;15.804;2022-09-03T08:23:38;99219.97;;;17.48;71.34
70027;BME280;57506;50.092;15.804;2022-09-03T08:26:05;99221.03;;;17.24;73.11
70027;BME280;57506;50.092;15.804;2022-09-03T08:28:32;99226.38;;;17.30;72.93
70027;BME280;57506;50.092;15.804;2022-09-03T08:31:04;99219.16;;;17.36;73.60
70027;BME280;57506;50.092;15.804;2022-09-03T08:33:30;99215.59;;;17.47;73.04
70027;BME280;57506;50.092;15.804;2022-09-03T08:36:06;99218.06;;;17.60;71.18
70027;BME280;57506;50.092;15.804;2022-09-03T08:38:33;99211.56;;;17.61;72.04
70027;BME280;57506;50.092;15.804;2022-09-03T08:41:04;99215.81;;;17.80;72.33
70027;BME280;57506;50.092;15.804;2022-09-03T08:43:30;99196.81;;;17.97;72.33
70027;BME280;57506;50.092;15.804;2022-09-03T08:46:00;99219.91;;;18.35;71.15
70027;BME280;57506;50.092;15.804;2022-09-03T08:48:27;99217.53;;;18.38;69.04
70027;BME280;57506;50.092;15.804;2022-09-03T08:50:55;99212.25;;;18.32;70.45
70027;BME280;57506;50.092;15.804;2022-09-03T08:53:34;99215.63;;;18.39;70.02
70027;BME280;57506;50.092;15.804;2022-09-03T08:56:08;99211.78;;;18.51;69.34
70027;BME280;57506;50.092;15.804;2022-09-03T08:58:36;99206.31;;;18.80;68.86
70027;BME280;57506;50.092;15.804;2022-09-03T09:01:20;99225.13;;;19.27;67.94
70027;BME280;57506;50.092;15.804;2022-09-03T09:06:54;99217.16;;;19.59;68.10
70027;BME280;57506;50.092;15.804;2022-09-03T09:23:05;99213.72;;;20.55;61.75
70027;BME280;57506;50.092;15.804;2022-09-03T09:25:40;99200.81;;;20.78;59.28
70027;BME280;57506;50.092;15.804;2022-09-03T09:28:16;99209.69;;;20.90;58.14
70027;BME280;57506;50.092;15.804;2022-09-03T09:30:44;99213.06;;;21.02;59.40
70027;BME280;57506;50.092;15.804;2022-09-03T09:33:10;99195.47;;;20.93;60.92
70027;BME280;57506;50.092;15.804;2022-09-03T09:35:35;99195.34;;;21.10;57.95
70027;BME280;57506;50.092;15.804;2022-09-03T09:38:01;99195.28;;;21.05;57.25
70027;BME280;57506;50.092;15.804;2022-09-03T09:40:38;99208.16;;;21.36;56.63
70027;BME280;57506;50.092;15.804;2022-09-03T09:43:17;99197.97;;;21.26;57.08
70027;BME280;57506;50.092;15.804;2022-09-03T09:45:47;99193.63;;;21.36;57.00
70027;BME280;57506;50.092;15.804;2022-09-03T09:50:42;99199.88;;;21.26;59.37
70027;BME280;57506;50.092;15.804;2022-09-03T09:53:09;99200.13;;;20.98;59.10
70027;BME280;57506;50.092;15.804;2022-09-03T09:56:08;99194.53;;;21.14;57.25
70027;BME280;57506;50.092;15.804;2022-09-03T09:58:44;99189.88;;;21.15;56.94
70027;BME280;57506;50.092;15.804;2022-09-03T10:01:20;99196.31;;;21.30;56.51
70027;BME280;57506;50.092;15.804;2022-09-03T10:03:55;99174.91;;;21.27;60.38
70027;BME280;57506;50.092;15.804;2022-09-03T10:06:26;99183.78;;;21.45;57.54
70027;BME280;57506;50.092;15.804;2022-09-03T10:09:23;99186.22;;;21.83;57.71
70027;BME280;57506;50.092;15.804;2022-09-03T10:14:49;99177.47;;;21.91;54.53
70027;BME280;57506;50.092;15.804;2022-09-03T10:17:23;99189.75;;;21.32;54.64
70027;BME280;57506;50.092;15.804;2022-09-03T10:20:13;99181.75;;;21.67;56.25
70027;BME280;57506;50.092;15.804;2022-09-03T10:28:38;99162.16;;;22.01;57.36
70027;BME280;57506;50.092;15.804;2022-09-03T10:31:20;99163.94;;;22.47;53.25
70027;BME280;57506;50.092;15.804;2022-09-03T10:44:44;99155.50;;;22.99;50.57
70027;BME280;57506;50.092;15.804;2022-09-03T10:50:08;99156.31;;;22.90;48.09
70027;BME280;57506;50.092;15.804;2022-09-03T10:52:55;99147.78;;;22.96;52.66
70027;BME280;57506;50.092;15.804;2022-09-03T10:55:39;99148.34;;;22.98;49.07
70027;BME280;57506;50.092;15.804;2022-09-03T11:00:59;99143.06;;;23.53;47.52
70027;BME280;57506;50.092;15.804;2022-09-03T11:03:40;99148.53;;;23.43;49.34
70027;BME280;57506;50.092;15.804;2022-09-03T11:06:27;99143.59;;;23.45;46.89
70027;BME280;57506;50.092;15.804;2022-09-03T11:11:37;99127.69;;;23.31;48.87
70027;BME280;57506;50.092;15.804;2022-09-03T11:14:12;99116.72;;;23.16;49.05
70027;BME280;57506;50.092;15.804;2022-09-03T11:16:50;99131.22;;;23.42;46.33
70027;BME280;57506;50.092;15.804;2022-09-03T11:19:24;99127.72;;;23.16;48.13
70027;BME280;57506;50.092;15.804;2022-09-03T11:21:55;99118.41;;;22.87;42.65
70027;BME280;57506;50.092;15.804;2022-09-03T11:24:26;99122.50;;;22.79;45.19
70027;BME280;57506;50.092;15.804;2022-09-03T11:30:08;99123.31;;;22.69;47.67
70027;BME280;57506;50.092;15.804;2022-09-03T11:38:05;99123.88;;;22.97;45.67
70027;BME280;57506;50.092;15.804;2022-09-03T11:40:34;99107.84;;;23.45;47.52
70027;BME280;57506;50.092;15.804;2022-09-03T11:43:13;99113.88;;;23.57;46.52
70027;BME280;57506;50.092;15.804;2022-09-03T11:49:24;99113.91;;;24.06;45.63
70027;BME280;57506;50.092;15.804;2022-09-03T11:51:41;99117.97;;;24.29;44.38
70027;BME280;57506;50.092;15.804;2022-09-03T11:56:48;99119.84;;;24.72;42.71
70027;BME280;57506;50.092;15.804;2022-09-03T11:59:23;99121.19;;;24.75;46.86
70027;BME280;57506;50.092;15.804;2022-09-03T12:02:02;99120.25;;;24.95;44.68
70027;BME280;57506;50.092;15.804;2022-09-03T12:18:55;99101.97;;;23.77;45.26
70027;BME280;57506;50.092;15.804;2022-09-03T12:21:25;99101.59;;;23.93;46.40
70027;BME280;57506;50.092;15.804;2022-09-03T12:23:52;99107.28;;;24.12;44.79
70027;BME280;57506;50.092;15.804;2022-09-03T12:26:23;99109.50;;;24.10;46.65
70027;BME280;57506;50.092;15.804;2022-09-03T12:29:00;99108.25;;;24.36;43.43
70027;BME280;57506;50.092;15.804;2022-09-03T12:31:31;99117.56;;;24.46;45.32
70027;BME280;57506;50.092;15.804;2022-09-03T12:34:02;99114.19;;;24.10;46.11
70027;BME280;57506;50.092;15.804;2022-09-03T12:36:52;99103.25;;;23.94;45.68
70027;BME280;57506;50.092;15.804;2022-09-03T12:39:25;99109.94;;;23.78;44.96
70027;BME280;57506;50.092;15.804;2022-09-03T12:47:20;99104.44;;;23.73;46.50
70027;BME280;57506;50.092;15.804;2022-09-03T12:49:49;99109.75;;;23.59;46.42
70027;BME280;57506;50.092;15.804;2022-09-03T12:52:20;99105.06;;;23.55;44.20
70027;BME280;57506;50.092;15.804;2022-09-03T12:54:58;99103.28;;;23.89;48.22
70027;BME280;57506;50.092;15.804;2022-09-03T12:57:39;99102.63;;;24.07;48.73
70027;BME280;57506;50.092;15.804;2022-09-03T13:00:11;99098.31;;;23.91;46.09
70027;BME280;57506;50.092;15.804;2022-09-03T13:03:02;99090.22;;;23.46;45.63
70027;BME280;57506;50.092;15.804;2022-09-03T13:05:36;99085.53;;;23.61;46.76
70027;BME280;57506;50.092;15.804;2022-09-03T13:08:08;99091.94;;;23.26;46.38
70027;BME280;57506;50.092;15.804;2022-09-03T13:10:40;99094.44;;;23.18;46.55
70027;BME280;57506;50.092;15.804;2022-09-03T13:13:36;99091.97;;;23.21;46.68
70027;BME280;57506;50.092;15.804;2022-09-03T13:21:23;99089.50;;;23.15;45.88
70027;BME280;57506;50.092;15.804;2022-09-03T13:40:27;99072.91;;;23.50;45.94
70027;BME280;57506;50.092;15.804;2022-09-03T13:45:46;99055.78;;;23.68;44.70
70027;BME280;57506;50.092;15.804;2022-09-03T13:48:20;99063.56;;;23.51;45.86
70027;BME280;57506;50.092;15.804;2022-09-03T13:54:22;99066.38;;;23.90;45.38
70027;BME280;57506;50.092;15.804;2022-09-03T13:57:06;99069.69;;;23.87;46.49
70027;BME280;57506;50.092;15.804;2022-09-03T14:02:22;99051.59;;;23.76;44.91
70027;BME280;57506;50.092;15.804;2022-09-03T14:05:12;99054.44;;;23.56;47.65
70027;BME280;57506;50.092;15.804;2022-09-03T14:11:13;99052.88;;;23.99;46.50
70027;BME280;57506;50.092;15.804;2022-09-03T14:16:45;99043.75;;;24.42;43.90
70027;BME280;57506;50.092;15.804;2022-09-03T14:19:16;99055.66;;;23.89;46.24
70027;BME280;57506;50.092;15.804;2022-09-03T14:21:55;99038.47;;;23.68;47.22
70027;BME280;57506;50.092;15.804;2022-09-03T14:24:50;99042.38;;;23.47;47.27
70027;BME280;57506;50.092;15.804;2022-09-03T14:27:22;99037.94;;;23.56;48.23
70027;BME280;57506;50.092;15.804;2022-09-03T14:29:53;99046.78;;;23.53;44.10
70027;BME280;57506;50.092;15.804;2022-09-03T14:32:33;99042.09;;;23.48;43.77
70027;BME280;57506;50.092;15.804;2022-09-03T14:35:09;99039.09;;;23.39;47.90
70027;BME280;57506;50.092;15.804;2022-09-03T14:40:43;99040.56;;;23.86;45.50
70027;BME280;57506;50.092;15.804;2022-09-03T14:45:54;99040.41;;;23.57;45.77
70027;BME280;57506;50.092;15.804;2022-09-03T14:51:25;99036.09;;;23.31;46.98
70027;BME280;57506;50.092;15.804;2022-09-03T15:07:41;99041.69;;;24.58;45.26
70027;BME280;57506;50.092;15.804;2022-09-03T15:10:25;99032.44;;;25.07;43.79
70027;BME280;57506;50.092;15.804;2022-09-03T15:12:56;99022.03;;;25.47;43.36
70027;BME280;57506;50.092;15.804;2022-09-03T15:15:31;99027.91;;;25.40;45.55
70027;BME280;57506;50.092;15.804;2022-09-03T15:18:12;99037.34;;;25.34;42.96
70027;BME280;57506;50.092;15.804;2022-09-03T15:20:51;99028.34;;;25.28;43.38
70027;BME280;57506;50.092;15.804;2022-09-03T15:26:38;99028.09;;;26.94;38.54
70027;BME280;57506;50.092;15.804;2022-09-03T15:29:22;99014.22;;;28.48;36.77
70027;BME280;57506;50.092;15.804;2022-09-03T15:38:04;99017.53;;;31.07;32.35
70027;BME280;57506;50.092;15.804;2022-09-03T15:40:49;99004.22;;;31.21;30.68
70027;BME280;57506;50.092;15.804;2022-09-03T15:43:25;99000.59;;;30.82;31.85
70027;BME280;57506;50.092;15.804;2022-09-03T15:46:13;99008.56;;;28.31;35.33
70027;BME280;57506;50.092;15.804;2022-09-03T15:51:29;99022.31;;;26.90;38.33
70027;BME280;57506;50.092;15.804;2022-09-03T15:54:09;99004.09;;;26.24;38.86
70027;BME280;57506;50.092;15.804;2022-09-03T15:56:42;99029.88;;;25.58;40.71
70027;BME280;57506;50.092;15.804;2022-09-03T16:15:11;99022.97;;;26.55;38.59
70027;BME280;57506;50.092;15.804;2022-09-03T16:18:15;99019.72;;;26.34;39.99
70027;BME280;57506;50.092;15.804;2022-09-03T16:20:53;99023.50;;;26.19;39.67
70027;BME280;57506;50.092;15.804;2022-09-03T16:26:41;99029.91;;;24.82;41.67
70027;BME280;57506;50.092;15.804;2022-09-03T16:29:14;99025.25;;;23.65;44.95
70027;BME280;57506;50.092;15.804;2022-09-03T16:34:42;99028.25;;;22.63;48.88
70027;BME280;57506;50.092;15.804;2022-09-03T16:37:44;99037.59;;;22.12;51.64
70027;BME280;57506;50.092;15.804;2022-09-03T16:40:39;99028.16;;;21.72;52.11
70027;BME280;57506;50.092;15.804;2022-09-03T16:43:11;99028.41;;;21.55;51.96
70027;BME280;57506;50.092;15.804;2022-09-03T16:51:32;99025.19;;;21.16;53.00
70027;BME280;57506;50.092;15.804;2022-09-03T16:54:12;99033.72;;;21.20;53.86
70027;BME280;57506;50.092;15.804;2022-09-03T16:59:58;99030.84;;;21.52;53.37
70027;BME280;57506;50.092;15.804;2022-09-03T17:02:45;99020.91;;;21.36;52.98
70027;BME280;57506;50.092;15.804;2022-09-03T17:10:45;99036.91;;;20.65;56.76
70027;BME280;57506;50.092;15.804;2022-09-03T17:16:50;99032.50;;;20.26;57.91
70027;BME280;57506;50.092;15.804;2022-09-03T17:19:27;99041.03;;;20.03;58.62
70027;BME280;57506;50.092;15.804;2022-09-03T17:24:40;99043.91;;;19.65;61.61
70027;BME280;57506;50.092;15.804;2022-09-03T17:36:17;99050.66;;;18.97;66.40